Time;durP1;ratioP1;P1;durP2;ratioP2;P2;SDS_P1;SDS_P2;PMS_P1;PMS_P2;Temp;Humidity;BMP_temperature;BMP_pressure;BME280_temperature;BME280_humidity;BME280_pressure;Samples;Min_cycle;Max_cycle;Signal;HPM_P1;HPM_P2
2023/03/16 00:02:17;;;;;;;11.68;2.70;;;;;;;;;;5001580;28;20386;-82
2023/03/16 00:04:46;;;;;;;11.25;3.10;;;;;;;;;;5028365;28;20047;-83
2023/03/16 00:07:13;;;;;;;15.30;2.88;;;;;;;;;;5014043;28;20045;-82
2023/03/16 00:09:40;;;;;;;7.20;2.80;;;;;;;;;;5014518;28;20115;-82
2023/03/16 00:12:14;;;;;;;6.05;2.60;;;;;;;;;;5014730;28;20040;-83
2023/03/16 00:14:40;;;;;;;9.57;3.00;;;;;;;;;;5012782;28;20083;-83
2023/03/16 00:17:06;;;;;;;9.48;2.95;;;;;;;;;;5010188;28;20052;-83
2023/03/16 00:19:34;;;;;;;8.00;3.25;;;;;;;;;;5026270;28;20448;-83
2023/03/16 00:22:00;;;;;;;10.40;3.30;;;;;;;;;;5010623;28;20041;-83
2023/03/16 00:24:26;;;;;;;5.07;2.28;;;;;;;;;;5009436;28;20040;-82
2023/03/16 00:26:53;;;;;;;8.13;2.83;;;;;;;;;;5007442;28;20037;-82
2023/03/16 00:29:21;;;;;;;9.82;3.05;;;;;;;;;;4992929;28;20052;-82
2023/03/16 00:31:47;;;;;;;5.88;2.60;;;;;;;;;;5022776;28;20079;-82
2023/03/16 00:34:14;;;;;;;8.48;2.92;;;;;;;;;;5024216;28;20034;-82
2023/03/16 00:36:41;;;;;;;9.20;2.92;;;;;;;;;;5011732;28;20062;-82
2023/03/16 00:39:10;;;;;;;7.55;2.90;;;;;;;;;;5031065;28;20080;-82
2023/03/16 00:41:39;;;;;;;10.65;3.60;;;;;;;;;;5029100;28;20102;-81
2023/03/16 00:44:05;;;;;;;9.07;2.90;;;;;;;;;;5034931;28;20044;-81
2023/03/16 00:46:32;;;;;;;5.97;2.53;;;;;;;;;;5033293;28;20084;-81
2023/03/16 00:48:58;;;;;;;6.53;2.88;;;;;;;;;;5006556;28;20041;-82
2023/03/16 00:51:24;;;;;;;9.57;3.03;;;;;;;;;;5009076;28;20037;-82
2023/03/16 00:53:50;;;;;;;6.25;3.25;;;;;;;;;;5019286;28;20077;-82
2023/03/16 00:56:16;;;;;;;8.43;3.25;;;;;;;;;;5027395;28;20124;-82
2023/03/16 00:58:42;;;;;;;8.40;2.72;;;;;;;;;;5009064;28;20049;-82
2023/03/16 01:01:10;;;;;;;6.35;2.67;;;;;;;;;;5014068;28;20079;-82
2023/03/16 01:03:36;;;;;;;7.90;3.72;;;;;;;;;;5025834;28;20061;-82
2023/03/16 01:06:04;;;;;;;8.07;2.60;;;;;;;;;;5024636;28;20047;-81
2023/03/16 01:08:31;;;;;;;9.55;3.08;;;;;;;;;;5024745;28;20099;-82
2023/03/16 01:11:02;;;;;;;8.85;2.75;;;;;;;;;;5026022;28;20160;-81
2023/03/16 01:13:28;;;;;;;13.93;3.22;;;;;;;;;;5040164;28;20049;-82
2023/03/16 01:15:54;;;;;;;8.57;2.83;;;;;;;;;;5022357;28;20099;-81
2023/03/16 01:18:21;;;;;;;7.35;2.80;;;;;;;;;;5023955;28;20158;-81
2023/03/16 01:20:50;;;;;;;6.85;3.00;;;;;;;;;;5017059;28;20477;-82
2023/03/16 01:23:17;;;;;;;8.75;3.40;;;;;;;;;;5025400;28;20056;-82
2023/03/16 01:25:51;;;;;;;7.43;2.80;;;;;;;;;;5013774;28;20045;-82
2023/03/16 01:28:17;;;;;;;8.18;3.08;;;;;;;;;;5019630;28;20127;-82
2023/03/16 01:30:44;;;;;;;8.95;3.22;;;;;;;;;;5022851;28;20060;-82
2023/03/16 01:33:10;;;;;;;6.93;3.15;;;;;;;;;;5021749;28;20098;-82
2023/03/16 01:35:36;;;;;;;10.75;3.55;;;;;;;;;;5007825;28;20414;-82
2023/03/16 01:38:03;;;;;;;5.53;2.88;;;;;;;;;;4989726;28;20120;-82
2023/03/16 01:40:30;;;;;;;7.80;3.25;;;;;;;;;;4995087;28;20147;-81
2023/03/16 01:43:03;;;;;;;9.13;3.10;;;;;;;;;;5026943;28;20120;-82
2023/03/16 01:45:48;;;;;;;6.15;3.28;;;;;;;;;;5014817;28;20036;-82
2023/03/16 01:48:15;;;;;;;7.85;2.75;;;;;;;;;;5005253;28;20122;-81
2023/03/16 01:50:41;;;;;;;5.97;3.10;;;;;;;;;;4993317;28;20115;-82
2023/03/16 01:53:08;;;;;;;5.35;3.13;;;;;;;;;;5008601;28;20058;-82
2023/03/16 01:55:35;;;;;;;7.60;3.42;;;;;;;;;;5007855;28;20433;-82
2023/03/16 01:58:01;;;;;;;11.88;3.50;;;;;;;;;;5007653;28;21980;-82
2023/03/16 02:00:30;;;;;;;7.68;3.40;;;;;;;;;;5008612;28;20867;-82
2023/03/16 02:02:59;;;;;;;9.27;3.28;;;;;;;;;;4987793;28;20044;-82
2023/03/16 02:05:30;;;;;;;9.57;3.70;;;;;;;;;;5018092;28;20032;-82
2023/03/16 02:07:57;;;;;;;8.63;4.32;;;;;;;;;;5008702;28;20119;-83
2023/03/16 02:10:24;;;;;;;8.82;3.20;;;;;;;;;;5007903;28;20092;-82
2023/03/16 02:12:51;;;;;;;7.82;3.47;;;;;;;;;;5005661;28;20501;-82
2023/03/16 02:15:18;;;;;;;8.02;3.60;;;;;;;;;;5015241;28;20386;-82
2023/03/16 02:17:44;;;;;;;7.13;3.58;;;;;;;;;;5006578;28;20596;-83
2023/03/16 02:20:33;;;;;;;8.40;3.80;;;;;;;;;;5028910;28;20160;-82
2023/03/16 02:22:59;;;;;;;9.00;3.80;;;;;;;;;;5012109;28;20053;-82
2023/03/16 02:25:33;;;;;;;13.82;4.57;;;;;;;;;;5022701;28;20037;-82
2023/03/16 02:28:10;;;;;;;7.72;3.45;;;;;;;;;;5030188;28;20048;-82
2023/03/16 02:30:36;;;;;;;8.95;3.72;;;;;;;;;;5016071;28;20041;-82
2023/03/16 02:33:03;;;;;;;7.65;3.78;;;;;;;;;;5030311;28;20137;-81
2023/03/16 02:35:30;;;;;;;9.23;3.97;;;;;;;;;;5040797;28;20047;-82
2023/03/16 02:37:56;;;;;;;6.75;3.83;;;;;;;;;;5024088;28;20049;-82
2023/03/16 02:40:24;;;;;;;9.60;4.00;;;;;;;;;;4994558;28;20048;-82
2023/03/16 02:42:53;;;;;;;7.50;3.90;;;;;;;;;;5011486;28;20041;-82
2023/03/16 02:45:20;;;;;;;7.30;3.70;;;;;;;;;;5022066;28;20041;-83
2023/03/16 02:47:47;;;;;;;7.18;4.10;;;;;;;;;;5000675;28;20222;-82
2023/03/16 02:50:13;;;;;;;9.82;3.97;;;;;;;;;;5019918;28;20041;-82
2023/03/16 02:52:40;;;;;;;8.98;3.95;;;;;;;;;;4993156;28;20046;-82
2023/03/16 02:55:07;;;;;;;6.22;3.42;;;;;;;;;;5013543;28;20056;-81
2023/03/16 02:57:33;;;;;;;5.72;3.65;;;;;;;;;;5007416;28;21078;-82
2023/03/16 03:00:00;;;;;;;6.57;3.97;;;;;;;;;;5012741;28;20135;-82
2023/03/16 03:02:26;;;;;;;8.13;3.70;;;;;;;;;;5004243;28;20045;-82
2023/03/16 03:04:53;;;;;;;8.48;3.35;;;;;;;;;;5021715;28;20045;-82
2023/03/16 03:07:20;;;;;;;8.10;3.40;;;;;;;;;;5003121;28;20044;-82
2023/03/16 03:09:46;;;;;;;11.57;3.30;;;;;;;;;;5005373;28;20135;-83
2023/03/16 03:12:13;;;;;;;6.85;3.47;;;;;;;;;;5004347;28;20421;-82
2023/03/16 03:14:39;;;;;;;6.50;3.45;;;;;;;;;;5006293;28;20037;-83
2023/03/16 03:17:09;;;;;;;6.40;3.83;;;;;;;;;;5020476;28;20055;-83
2023/03/16 03:19:36;;;;;;;8.38;3.78;;;;;;;;;;5018682;28;20056;-82
2023/03/16 03:22:05;;;;;;;9.35;3.83;;;;;;;;;;5007288;28;21019;-82
2023/03/16 03:24:31;;;;;;;5.25;3.10;;;;;;;;;;5008560;28;20397;-82
2023/03/16 03:27:04;;;;;;;9.15;3.85;;;;;;;;;;5014456;28;20135;-83
2023/03/16 03:29:33;;;;;;;9.20;3.15;;;;;;;;;;4997781;28;20040;-82
2023/03/16 03:32:06;;;;;;;6.25;3.75;;;;;;;;;;5005974;28;20049;-82
2023/03/16 03:34:32;;;;;;;7.57;3.38;;;;;;;;;;5008497;28;20039;-83
2023/03/16 03:36:59;;;;;;;10.57;3.90;;;;;;;;;;5011288;28;20115;-82
2023/03/16 03:39:26;;;;;;;8.50;4.13;;;;;;;;;;5009151;28;20095;-82
2023/03/16 03:41:53;;;;;;;8.15;3.50;;;;;;;;;;5006877;28;20096;-84
2023/03/16 03:44:20;;;;;;;7.75;3.40;;;;;;;;;;5022215;28;20063;-83
2023/03/16 03:46:47;;;;;;;7.70;3.63;;;;;;;;;;5016938;28;20045;-82
2023/03/16 03:49:13;;;;;;;6.68;3.50;;;;;;;;;;4998128;28;20037;-82
2023/03/16 03:51:42;;;;;;;5.95;3.65;;;;;;;;;;4997290;28;20494;-82
2023/03/16 03:54:09;;;;;;;12.43;3.33;;;;;;;;;;4999600;28;20152;-82
2023/03/16 03:56:35;;;;;;;7.15;3.88;;;;;;;;;;5010135;28;20265;-82
2023/03/16 03:59:01;;;;;;;7.22;4.07;;;;;;;;;;5030103;28;20060;-82
2023/03/16 04:01:28;;;;;;;6.43;3.97;;;;;;;;;;5016996;28;20051;-82
2023/03/16 04:03:54;;;;;;;8.02;3.85;;;;;;;;;;4982367;28;21863;-83
2023/03/16 04:06:20;;;;;;;8.02;3.97;;;;;;;;;;4999736;28;20135;-82
2023/03/16 04:08:46;;;;;;;7.85;3.78;;;;;;;;;;4993847;28;20053;-82
2023/03/16 04:11:12;;;;;;;9.35;3.92;;;;;;;;;;4991579;28;20041;-82
2023/03/16 04:13:38;;;;;;;8.23;3.85;;;;;;;;;;4981199;28;20525;-82
2023/03/16 04:16:04;;;;;;;9.18;3.80;;;;;;;;;;4988236;28;20079;-81
2023/03/16 04:18:37;;;;;;;8.43;3.67;;;;;;;;;;5017688;28;20086;-80
2023/03/16 04:21:05;;;;;;;7.65;3.72;;;;;;;;;;5024782;28;20041;-81
2023/03/16 04:23:32;;;;;;;6.30;3.97;;;;;;;;;;5010758;28;20429;-81
2023/03/16 04:25:58;;;;;;;6.68;3.72;;;;;;;;;;5007057;28;20049;-82
2023/03/16 04:28:25;;;;;;;9.95;3.90;;;;;;;;;;5005987;28;20052;-82
2023/03/16 04:30:55;;;;;;;5.90;3.95;;;;;;;;;;5004650;28;20080;-82
2023/03/16 04:33:21;;;;;;;10.15;4.00;;;;;;;;;;5024121;28;20182;-81
2023/03/16 04:35:47;;;;;;;6.47;3.97;;;;;;;;;;4993816;28;20127;-82
2023/03/16 04:38:13;;;;;;;10.32;4.40;;;;;;;;;;5002645;28;20178;-82
2023/03/16 04:40:40;;;;;;;8.85;4.90;;;;;;;;;;5002543;28;20512;-82
2023/03/16 04:43:06;;;;;;;7.32;3.78;;;;;;;;;;5006268;28;20270;-82
2023/03/16 04:45:32;;;;;;;7.20;3.88;;;;;;;;;;5004484;28;21171;-82
2023/03/16 04:47:58;;;;;;;8.07;3.65;;;;;;;;;;4986404;28;20128;-82
2023/03/16 04:50:24;;;;;;;8.68;4.13;;;;;;;;;;5007614;28;20033;-81
2023/03/16 04:52:51;;;;;;;7.30;3.83;;;;;;;;;;5012348;28;20052;-82
2023/03/16 04:55:17;;;;;;;6.97;3.78;;;;;;;;;;5023210;28;20566;-82
2023/03/16 04:57:43;;;;;;;6.70;4.63;;;;;;;;;;4995666;28;20164;-82
2023/03/16 05:00:11;;;;;;;7.93;4.25;;;;;;;;;;4990066;28;20044;-82
2023/03/16 05:02:38;;;;;;;9.20;4.35;;;;;;;;;;5020220;28;20064;-82
2023/03/16 05:05:05;;;;;;;7.90;3.88;;;;;;;;;;5003882;28;20045;-83
2023/03/16 05:07:31;;;;;;;8.80;4.18;;;;;;;;;;5028157;28;20048;-83
2023/03/16 05:09:57;;;;;;;5.63;3.70;;;;;;;;;;4995565;28;20078;-83
2023/03/16 05:12:24;;;;;;;9.30;4.13;;;;;;;;;;5015466;28;20080;-79
2023/03/16 05:14:50;;;;;;;6.55;3.80;;;;;;;;;;5013175;28;20045;-79
2023/03/16 05:17:16;;;;;;;8.82;4.97;;;;;;;;;;5011252;28;20044;-79
2023/03/16 05:19:42;;;;;;;11.55;4.13;;;;;;;;;;5014244;28;20146;-77
2023/03/16 05:22:08;;;;;;;7.13;3.65;;;;;;;;;;5014382;28;21996;-77
2023/03/16 05:24:36;;;;;;;8.68;4.30;;;;;;;;;;4999432;28;20043;-77
2023/03/16 05:27:02;;;;;;;14.45;5.40;;;;;;;;;;5011412;28;20789;-77
2023/03/16 05:29:30;;;;;;;7.90;4.43;;;;;;;;;;5009409;28;20041;-77
2023/03/16 05:31:56;;;;;;;9.27;4.40;;;;;;;;;;5010050;28;20092;-77
2023/03/16 05:34:22;;;;;;;9.82;4.40;;;;;;;;;;5011658;28;20045;-77
2023/03/16 05:36:48;;;;;;;7.45;4.57;;;;;;;;;;5011757;28;20045;-76
2023/03/16 05:39:14;;;;;;;6.47;4.28;;;;;;;;;;4998188;28;20060;-76
2023/03/16 05:41:41;;;;;;;9.95;5.32;;;;;;;;;;5016607;28;20114;-77
2023/03/16 05:44:07;;;;;;;7.55;4.70;;;;;;;;;;5015390;28;20056;-77
2023/03/16 05:46:34;;;;;;;12.57;5.07;;;;;;;;;;5002418;28;20041;-77
2023/03/16 05:49:00;;;;;;;11.48;4.50;;;;;;;;;;5027776;28;20540;-77
2023/03/16 05:51:26;;;;;;;8.45;4.90;;;;;;;;;;4998985;28;21717;-77
2023/03/16 05:53:55;;;;;;;11.18;4.60;;;;;;;;;;5003129;28;20057;-77
2023/03/16 05:56:23;;;;;;;8.13;5.07;;;;;;;;;;5015709;28;20495;-78
2023/03/16 05:58:50;;;;;;;12.60;4.88;;;;;;;;;;5013677;28;20124;-77
2023/03/16 06:01:16;;;;;;;7.10;4.50;;;;;;;;;;5018717;28;20049;-77
2023/03/16 06:03:42;;;;;;;8.80;5.10;;;;;;;;;;5016896;28;20108;-77
2023/03/16 06:06:08;;;;;;;7.85;4.97;;;;;;;;;;5015034;28;20078;-78
2023/03/16 06:08:34;;;;;;;8.57;4.45;;;;;;;;;;5011235;28;20037;-78
2023/03/16 06:11:00;;;;;;;8.82;5.03;;;;;;;;;;5013450;28;20067;-77
2023/03/16 06:13:26;;;;;;;7.28;5.30;;;;;;;;;;4986370;28;20132;-77
2023/03/16 06:15:52;;;;;;;8.27;4.60;;;;;;;;;;5008536;28;20599;-77
2023/03/16 06:18:18;;;;;;;8.18;4.97;;;;;;;;;;5002051;28;20041;-78
2023/03/16 06:20:46;;;;;;;6.68;4.50;;;;;;;;;;5013824;28;20049;-77
2023/03/16 06:23:12;;;;;;;10.15;4.90;;;;;;;;;;5018343;28;21652;-77
2023/03/16 06:25:38;;;;;;;7.68;4.82;;;;;;;;;;5023049;28;20045;-76
2023/03/16 06:28:05;;;;;;;8.38;5.55;;;;;;;;;;5021013;28;20037;-76
2023/03/16 06:30:31;;;;;;;9.25;4.82;;;;;;;;;;5011752;28;20553;-77
2023/03/16 06:32:58;;;;;;;10.77;5.00;;;;;;;;;;5007822;28;20048;-77
2023/03/16 06:35:25;;;;;;;7.63;4.70;;;;;;;;;;4992879;28;20048;-77
2023/03/16 06:37:51;;;;;;;8.05;5.57;;;;;;;;;;5011355;28;20049;-77
2023/03/16 06:40:17;;;;;;;7.97;4.50;;;;;;;;;;5010466;28;20564;-77
2023/03/16 06:42:46;;;;;;;7.90;5.32;;;;;;;;;;4993782;28;20584;-77
2023/03/16 06:45:14;;;;;;;6.75;4.90;;;;;;;;;;4994706;28;20041;-78
2023/03/16 06:47:40;;;;;;;8.30;4.97;;;;;;;;;;5000600;28;20136;-78
2023/03/16 06:50:07;;;;;;;7.22;4.53;;;;;;;;;;5010013;28;20075;-77
2023/03/16 06:52:33;;;;;;;7.53;5.15;;;;;;;;;;5000004;28;21937;-77
2023/03/16 06:55:00;;;;;;;5.22;4.25;;;;;;;;;;4985804;28;20041;-79
2023/03/16 06:57:26;;;;;;;8.30;4.10;;;;;;;;;;5006568;28;20037;-79
2023/03/16 06:59:52;;;;;;;9.30;4.68;;;;;;;;;;5021518;28;20223;-80
2023/03/16 07:02:19;;;;;;;7.22;5.05;;;;;;;;;;5016209;28;20551;-78
2023/03/16 07:04:45;;;;;;;6.70;4.65;;;;;;;;;;5012557;28;20053;-79
2023/03/16 07:07:11;;;;;;;6.13;4.60;;;;;;;;;;4995568;28;20077;-79
2023/03/16 07:09:38;;;;;;;7.50;4.75;;;;;;;;;;5012133;28;20576;-78
2023/03/16 07:12:04;;;;;;;19.13;6.38;;;;;;;;;;4994979;28;20147;-77
2023/03/16 07:14:30;;;;;;;7.45;4.93;;;;;;;;;;5011083;28;20108;-78
2023/03/16 07:16:56;;;;;;;67.38;10.48;;;;;;;;;;4993032;28;20489;-79
2023/03/16 07:19:22;;;;;;;50.03;8.20;;;;;;;;;;5010212;28;20644;-79
2023/03/16 07:21:49;;;;;;;8.23;5.03;;;;;;;;;;4997117;28;20041;-80
2023/03/16 07:24:15;;;;;;;16.90;5.38;;;;;;;;;;5000562;28;20497;-79
2023/03/16 07:26:42;;;;;;;12.10;5.30;;;;;;;;;;5001792;28;20037;-79
2023/03/16 07:29:08;;;;;;;9.40;5.32;;;;;;;;;;5002003;28;20048;-78
2023/03/16 07:31:35;;;;;;;8.80;4.70;;;;;;;;;;5009281;28;20123;-78
2023/03/16 07:34:01;;;;;;;13.85;4.90;;;;;;;;;;4995894;28;20045;-78
2023/03/16 07:36:28;;;;;;;10.18;5.13;;;;;;;;;;5001833;28;20060;-79
2023/03/16 07:38:54;;;;;;;11.88;5.18;;;;;;;;;;4999105;28;20045;-78
2023/03/16 07:41:20;;;;;;;6.93;5.07;;;;;;;;;;5011706;28;20148;-79
2023/03/16 07:43:47;;;;;;;8.07;5.20;;;;;;;;;;5041898;28;21330;-78
2023/03/16 07:46:15;;;;;;;12.15;5.40;;;;;;;;;;5003904;28;20402;-79
2023/03/16 07:48:41;;;;;;;9.52;5.38;;;;;;;;;;5013600;28;20144;-79
2023/03/16 07:51:08;;;;;;;41.25;10.50;;;;;;;;;;4999981;28;20037;-79
2023/03/16 07:53:34;;;;;;;237.70;24.17;;;;;;;;;;4978109;28;20057;-79
2023/03/16 07:56:01;;;;;;;15.25;6.20;;;;;;;;;;5012442;28;20418;-79
2023/03/16 07:58:27;;;;;;;7.28;5.00;;;;;;;;;;5001196;28;20474;-80
2023/03/16 08:01:00;;;;;;;7.82;4.85;;;;;;;;;;4997969;28;20048;-80
2023/03/16 08:03:26;;;;;;;9.80;5.47;;;;;;;;;;5019780;28;20048;-79
2023/03/16 08:05:53;;;;;;;7.15;5.43;;;;;;;;;;5002554;28;20551;-79
2023/03/16 08:08:20;;;;;;;18.75;5.28;;;;;;;;;;5002547;28;20554;-78
2023/03/16 08:10:51;;;;;;;12.90;4.97;;;;;;;;;;5016274;28;20175;-78
2023/03/16 08:13:17;;;;;;;5.80;5.13;;;;;;;;;;4997475;28;20045;-79
2023/03/16 08:15:47;;;;;;;9.15;5.25;;;;;;;;;;4998497;28;20295;-78
2023/03/16 08:18:14;;;;;;;7.65;4.97;;;;;;;;;;4999175;28;20044;-77
2023/03/16 08:20:40;;;;;;;8.82;4.78;;;;;;;;;;4997411;28;20592;-79
2023/03/16 08:23:11;;;;;;;11.35;5.93;;;;;;;;;;5020051;28;20095;-78
2023/03/16 08:25:38;;;;;;;19.58;5.38;;;;;;;;;;5003994;28;20516;-79
2023/03/16 08:28:04;;;;;;;26.40;6.82;;;;;;;;;;5019283;28;20120;-78
2023/03/16 08:30:30;;;;;;;12.82;5.47;;;;;;;;;;4996327;28;20049;-73
2023/03/16 08:32:57;;;;;;;8.65;5.63;;;;;;;;;;5013106;28;20219;-73
2023/03/16 08:35:24;;;;;;;10.73;5.45;;;;;;;;;;5012751;28;20084;-73
2023/03/16 08:37:50;;;;;;;8.82;5.82;;;;;;;;;;5008083;28;20049;-73
2023/03/16 08:40:17;;;;;;;8.57;5.07;;;;;;;;;;5009074;28;20485;-74
2023/03/16 08:42:43;;;;;;;6.95;5.25;;;;;;;;;;5009496;28;20057;-74
2023/03/16 08:45:10;;;;;;;6.80;5.55;;;;;;;;;;5011312;28;20484;-81
2023/03/16 08:47:38;;;;;;;8.05;6.00;;;;;;;;;;5010496;28;20482;-81
2023/03/16 08:50:07;;;;;;;9.65;6.00;;;;;;;;;;5009279;28;20064;-81
2023/03/16 08:52:35;;;;;;;11.65;5.45;;;;;;;;;;5010917;28;20057;-80
2023/03/16 08:55:04;;;;;;;9.20;5.57;;;;;;;;;;4989306;28;20443;-81
2023/03/16 08:57:31;;;;;;;10.48;5.85;;;;;;;;;;4998481;28;20070;-81
2023/03/16 08:59:58;;;;;;;7.88;5.10;;;;;;;;;;4994644;28;20405;-81
2023/03/16 09:02:24;;;;;;;11.07;5.43;;;;;;;;;;4997085;28;20041;-81
2023/03/16 09:04:51;;;;;;;7.10;5.28;;;;;;;;;;5013677;28;20560;-81
2023/03/16 09:07:17;;;;;;;8.68;5.40;;;;;;;;;;4994551;28;20045;-80
2023/03/16 09:09:45;;;;;;;7.93;5.15;;;;;;;;;;5012868;28;20120;-80
2023/03/16 09:12:11;;;;;;;8.15;5.25;;;;;;;;;;5011874;28;20091;-79
2023/03/16 09:14:38;;;;;;;17.00;6.53;;;;;;;;;;4994803;28;20041;-79
2023/03/16 09:17:06;;;;;;;7.75;6.00;;;;;;;;;;4993797;28;20290;-77
2023/03/16 09:19:32;;;;;;;8.00;6.47;;;;;;;;;;5020291;28;20229;-78
2023/03/16 09:21:59;;;;;;;13.95;5.82;;;;;;;;;;5017025;28;20068;-78
2023/03/16 09:24:25;;;;;;;9.60;5.82;;;;;;;;;;4988868;28;20045;-79
2023/03/16 09:26:51;;;;;;;16.08;5.93;;;;;;;;;;5006419;28;20051;-81
2023/03/16 09:29:17;;;;;;;277.30;40.53;;;;;;;;;;5007926;28;20115;-82
2023/03/16 09:31:44;;;;;;;12.45;6.05;;;;;;;;;;5009592;28;20049;-79
2023/03/16 09:34:11;;;;;;;8.95;5.90;;;;;;;;;;5004549;28;20049;-80
2023/03/16 09:36:38;;;;;;;9.65;6.78;;;;;;;;;;4991337;28;20053;-80
2023/03/16 09:39:04;;;;;;;7.32;5.85;;;;;;;;;;4994516;28;20440;-80
2023/03/16 09:41:48;;;;;;;8.95;5.90;;;;;;;;;;4992934;28;20114;-81
2023/03/16 09:44:28;;;;;;;11.60;6.57;;;;;;;;;;5000883;28;20063;-81
2023/03/16 09:46:54;;;;;;;11.10;5.75;;;;;;;;;;4999613;28;20042;-83
2023/03/16 09:49:24;;;;;;;21.83;7.03;;;;;;;;;;5015609;28;20042;-85
2023/03/16 09:51:54;;;;;;;9.18;6.15;;;;;;;;;;5007699;28;20045;-78
2023/03/16 09:54:23;;;;;;;11.88;5.60;;;;;;;;;;5021012;28;20135;-83
2023/03/16 09:56:51;;;;;;;18.35;6.80;;;;;;;;;;4997047;28;20098;-76
2023/03/16 09:59:17;;;;;;;9.35;6.18;;;;;;;;;;5009944;28;20052;-76
2023/03/16 10:01:44;;;;;;;8.13;6.18;;;;;;;;;;4995177;28;20058;-76
2023/03/16 10:04:30;;;;;;;16.52;7.70;;;;;;;;;;4991581;28;20046;-76
2023/03/16 10:07:02;;;;;;;10.52;6.20;;;;;;;;;;4992808;28;20135;-76
2023/03/16 10:09:28;;;;;;;10.65;6.28;;;;;;;;;;5006101;28;20044;-77
2023/03/16 10:11:56;;;;;;;8.52;5.75;;;;;;;;;;4999926;28;20040;-75
2023/03/16 10:14:24;;;;;;;11.88;5.65;;;;;;;;;;5010857;28;20045;-78
2023/03/16 10:17:02;;;;;;;9.05;6.20;;;;;;;;;;4998966;28;20071;-78
2023/03/16 10:19:47;;;;;;;10.40;6.45;;;;;;;;;;4996945;28;20051;-79
2023/03/16 10:22:26;;;;;;;9.27;6.28;;;;;;;;;;4997538;28;20053;-78
2023/03/16 10:25:00;;;;;;;9.13;6.40;;;;;;;;;;5011800;28;20041;-79
2023/03/16 10:27:28;;;;;;;22.10;6.18;;;;;;;;;;4998614;28;20160;-78
2023/03/16 10:29:55;;;;;;;10.88;6.50;;;;;;;;;;5018846;28;20045;-78
2023/03/16 10:32:23;;;;;;;10.13;6.85;;;;;;;;;;5016052;28;20037;-79
2023/03/16 10:34:56;;;;;;;11.00;7.47;;;;;;;;;;4998644;28;20155;-80
2023/03/16 10:37:24;;;;;;;9.95;7.05;;;;;;;;;;5002652;28;20183;-80
2023/03/16 10:39:50;;;;;;;11.38;7.13;;;;;;;;;;5001731;28;20052;-79
2023/03/16 10:42:17;;;;;;;8.23;6.10;;;;;;;;;;4984854;28;20156;-78
2023/03/16 10:44:44;;;;;;;10.52;6.75;;;;;;;;;;5017831;28;20076;-79
2023/03/16 10:47:23;;;;;;;13.30;7.25;;;;;;;;;;5002346;28;20051;-78
2023/03/16 10:49:50;;;;;;;9.82;6.15;;;;;;;;;;5016035;28;20073;-78
2023/03/16 10:52:25;;;;;;;10.50;6.90;;;;;;;;;;5000259;28;20072;-78
2023/03/16 10:54:56;;;;;;;10.20;7.03;;;;;;;;;;5001798;28;20064;-78
2023/03/16 10:57:33;;;;;;;9.43;6.72;;;;;;;;;;5019592;28;20045;-78
2023/03/16 11:00:00;;;;;;;13.15;7.43;;;;;;;;;;5011995;28;20057;-77
2023/03/16 11:02:34;;;;;;;8.80;7.10;;;;;;;;;;5009193;28;20429;-80
2023/03/16 11:05:11;;;;;;;12.25;7.10;;;;;;;;;;4992079;28;20045;-77
2023/03/16 11:07:38;;;;;;;12.93;7.70;;;;;;;;;;4995347;28;20168;-77
2023/03/16 11:10:13;;;;;;;11.90;7.57;;;;;;;;;;4996672;28;20061;-77
2023/03/16 11:12:39;;;;;;;10.43;7.03;;;;;;;;;;5012500;28;20071;-80
2023/03/16 11:15:12;;;;;;;10.88;8.43;;;;;;;;;;4997514;28;20045;-78
2023/03/16 11:17:44;;;;;;;13.63;7.60;;;;;;;;;;5010135;28;20087;-79
2023/03/16 11:20:20;;;;;;;11.32;7.30;;;;;;;;;;4999433;28;20049;-78
2023/03/16 11:22:47;;;;;;;11.70;7.80;;;;;;;;;;4992342;28;20073;-78
2023/03/16 11:25:17;;;;;;;12.18;7.93;;;;;;;;;;5001089;28;20416;-76
2023/03/16 11:27:43;;;;;;;14.27;7.13;;;;;;;;;;5011882;28;20156;-77
2023/03/16 11:30:10;;;;;;;10.10;7.45;;;;;;;;;;5009803;28;20077;-77
2023/03/16 11:32:37;;;;;;;11.25;6.93;;;;;;;;;;5009808;28;20055;-77
2023/03/16 11:35:15;;;;;;;10.88;6.85;;;;;;;;;;4991490;28;20049;-79
2023/03/16 11:37:41;;;;;;;11.43;6.68;;;;;;;;;;5010381;28;20117;-78
2023/03/16 11:40:24;;;;;;;9.85;6.97;;;;;;;;;;5009466;28;21505;-77
2023/03/16 11:43:00;;;;;;;10.32;6.47;;;;;;;;;;5009140;28;20056;-77
2023/03/16 11:45:29;;;;;;;8.27;6.10;;;;;;;;;;5009586;28;20720;-77
2023/03/16 11:47:55;;;;;;;9.80;7.03;;;;;;;;;;4991757;28;20145;-76
2023/03/16 11:50:45;;;;;;;9.40;6.53;;;;;;;;;;5008464;28;20162;-78
2023/03/16 11:53:19;;;;;;;11.55;6.18;;;;;;;;;;5012210;28;20057;-77
2023/03/16 11:55:48;;;;;;;9.77;6.43;;;;;;;;;;4995465;28;20087;-80
2023/03/16 11:58:21;;;;;;;9.35;6.78;;;;;;;;;;5013161;28;20043;-81
2023/03/16 12:01:07;;;;;;;13.02;6.68;;;;;;;;;;4999005;28;20136;-80
2023/03/16 12:03:36;;;;;;;8.20;6.05;;;;;;;;;;5003304;28;20076;-77
2023/03/16 12:06:20;;;;;;;8.75;5.65;;;;;;;;;;4998255;28;20076;-78
2023/03/16 12:08:53;;;;;;;9.85;6.15;;;;;;;;;;5014276;28;20123;-78
2023/03/16 12:11:34;;;;;;;8.48;5.85;;;;;;;;;;5014968;28;20053;-79
2023/03/16 12:14:07;;;;;;;7.88;5.18;;;;;;;;;;4996710;28;20049;-82
2023/03/16 12:16:50;;;;;;;9.93;6.10;;;;;;;;;;5016476;28;20045;-83
2023/03/16 12:19:45;;;;;;;9.52;5.78;;;;;;;;;;4998784;28;20053;-81
2023/03/16 12:22:12;;;;;;;10.18;5.80;;;;;;;;;;4993185;28;20057;-82
2023/03/16 12:24:42;;;;;;;8.15;5.40;;;;;;;;;;4997669;28;20136;-82
2023/03/16 12:27:14;;;;;;;7.63;5.60;;;;;;;;;;5013728;28;20697;-82
2023/03/16 12:30:00;;;;;;;7.22;5.43;;;;;;;;;;5013411;28;20083;-81
2023/03/16 12:32:35;;;;;;;11.82;6.55;;;;;;;;;;4999554;28;20052;-81
2023/03/16 12:35:20;;;;;;;10.43;6.30;;;;;;;;;;5020769;28;20069;-79
2023/03/16 12:37:53;;;;;;;7.45;5.65;;;;;;;;;;5025690;28;20484;-80
2023/03/16 12:40:22;;;;;;;11.50;6.30;;;;;;;;;;5021730;28;20049;-79
2023/03/16 12:43:06;;;;;;;6.50;5.30;;;;;;;;;;4996791;28;20052;-81
2023/03/16 12:45:39;;;;;;;8.18;5.93;;;;;;;;;;5017130;28;20545;-81
2023/03/16 12:48:13;;;;;;;7.57;5.55;;;;;;;;;;4999986;28;20120;-81
2023/03/16 12:50:50;;;;;;;9.85;6.30;;;;;;;;;;4998676;28;20453;-83
2023/03/16 12:53:26;;;;;;;8.88;5.82;;;;;;;;;;5008653;28;20524;-82
2023/03/16 12:55:52;;;;;;;7.38;5.25;;;;;;;;;;4998638;28;20052;-81
2023/03/16 12:58:18;;;;;;;7.03;5.60;;;;;;;;;;5000591;28;20052;-79
2023/03/16 13:00:55;;;;;;;9.02;5.90;;;;;;;;;;4999704;28;20462;-80
2023/03/16 13:03:24;;;;;;;6.78;5.30;;;;;;;;;;4998923;28;20041;-80
2023/03/16 13:05:57;;;;;;;10.05;5.80;;;;;;;;;;5009691;28;20056;-80
2023/03/16 13:08:24;;;;;;;7.80;5.65;;;;;;;;;;5012991;28;20542;-80
2023/03/16 13:10:59;;;;;;;7.10;5.53;;;;;;;;;;4985762;28;20076;-79
2023/03/16 13:13:27;;;;;;;13.93;5.85;;;;;;;;;;5006817;28;20037;-78
2023/03/16 13:16:03;;;;;;;9.55;5.60;;;;;;;;;;5006575;28;20786;-77
2023/03/16 13:18:43;;;;;;;6.40;4.88;;;;;;;;;;5000900;28;20186;-80
2023/03/16 13:21:28;;;;;;;9.00;5.53;;;;;;;;;;5002498;28;20132;-79
2023/03/16 13:24:13;;;;;;;6.10;5.18;;;;;;;;;;5010717;28;20126;-80
2023/03/16 13:26:46;;;;;;;10.23;6.13;;;;;;;;;;4997098;28;20047;-80
2023/03/16 13:29:38;;;;;;;6.10;5.25;;;;;;;;;;5004196;28;20482;-81
2023/03/16 13:32:14;;;;;;;5.78;4.53;;;;;;;;;;5000668;28;20048;-80
2023/03/16 13:34:52;;;;;;;9.40;5.40;;;;;;;;;;5014529;28;20033;-79
2023/03/16 13:37:19;;;;;;;11.25;5.70;;;;;;;;;;4997262;28;20708;-81
2023/03/16 13:40:12;;;;;;;8.30;4.43;;;;;;;;;;5030003;28;20044;-81
2023/03/16 13:42:38;;;;;;;6.90;4.53;;;;;;;;;;5013076;28;20053;-81
2023/03/16 13:45:12;;;;;;;8.23;5.60;;;;;;;;;;4995794;28;20179;-80
2023/03/16 13:47:41;;;;;;;10.60;4.85;;;;;;;;;;4997261;28;20052;-80
2023/03/16 13:50:11;;;;;;;8.43;5.03;;;;;;;;;;5014321;28;21681;-80
2023/03/16 13:52:38;;;;;;;7.05;4.78;;;;;;;;;;5014333;28;20049;-80
2023/03/16 13:55:14;;;;;;;5.78;4.55;;;;;;;;;;4999356;28;20063;-79
2023/03/16 13:57:41;;;;;;;7.85;5.10;;;;;;;;;;5012905;28;20163;-79
2023/03/16 14:00:23;;;;;;;7.30;4.70;;;;;;;;;;5006614;28;20052;-79
2023/03/16 14:02:57;;;;;;;6.95;4.43;;;;;;;;;;5017576;28;20045;-80
2023/03/16 14:05:24;;;;;;;;;;;;;;;;;;5018160;28;20199;-79
2023/03/16 14:07:51;;;;;;;6.38;4.07;;;;;;;;;;5019490;28;20732;-79
2023/03/16 14:10:18;;;;;;;7.45;4.78;;;;;;;;;;5008245;28;20668;-78
2023/03/16 14:12:54;;;;;;;5.80;4.35;;;;;;;;;;5033424;28;20041;-78
2023/03/16 14:15:22;;;;;;;10.27;4.95;;;;;;;;;;5015714;28;20153;-78
2023/03/16 14:17:48;;;;;;;4.82;3.65;;;;;;;;;;4998667;28;20040;-80
2023/03/16 14:20:22;;;;;;;6.07;3.75;;;;;;;;;;5018625;28;20037;-79
2023/03/16 14:22:49;;;;;;;;;;;;;;;;;;5005193;28;20469;-79
2023/03/16 14:25:22;;;;;;;6.38;4.65;;;;;;;;;;5016874;28;19927;-79
2023/03/16 14:27:56;;;;;;;7.95;4.10;;;;;;;;;;4999972;28;20442;-78
2023/03/16 14:30:24;;;;;;;6.13;3.97;;;;;;;;;;5006085;28;20684;-78
2023/03/16 14:33:04;;;;;;;4.28;3.60;;;;;;;;;;4999911;28;20196;-78
2023/03/16 14:35:41;;;;;;;5.00;3.80;;;;;;;;;;5014208;28;20431;-78
2023/03/16 14:38:31;;;;;;;5.55;3.70;;;8.50;99.90;;;;;;5002676;28;20051;-78
2023/03/16 14:41:02;;;;;;;6.90;4.35;;;;;;;;;;5021676;28;20228;-78
2023/03/16 14:43:34;;;;;;;6.75;3.60;;;;;;;;;;5002886;28;20450;-79
2023/03/16 14:46:00;;;;;;;6.10;4.10;;;;;;;;;;5001522;28;20038;-79
2023/03/16 14:48:27;;;;;;;8.68;3.67;;;;;;;;;;4997249;28;20528;-79
2023/03/16 14:50:54;;;;;;;7.93;4.05;;;;;;;;;;5011440;28;20524;-79
2023/03/16 14:53:20;;;;;;;7.75;3.55;;;;;;;;;;4999319;28;20115;-79